Aidan Devall — WD13173 — position and weather

sailwx.info

Track history (hours):
 
Tides and Currents Weather Stations Pressure Air Temp Water Temp Dewpoint Dewpoint Depression Visibility Wind Speed Wind Dir Waves Ship Positions

Aidan Devall

Last reported at 2018-Jun-18 20:05 UTC. Time now 2018-Jun-23 11:41 UTC.
Position N 28°57' W 095°18'.

Length 21 m.

Type: Towing. MMSI: 367685720.

Date/timePositionNaut miles runAvg speedWind from/ knotsBaromVisibWave heightAir tempDewpointWater temp
2018-Jun-18 20:05N 28°57' W 095°18'1 6.1
2018-Jun-18 19:58N 28°58' W 095°17'3 5.6
2018-Jun-18 19:30N 28°60' W 095°15'3 6.0
2018-Jun-18 19:00N 29°02' W 095°14'3 5.8
2018-Jun-18 18:30N 29°05' W 095°12'3 5.4
2018-Jun-18 18:00N 29°07' W 095°11'3 5.8
2018-Jun-18 17:30N 29°09' W 095°09'3 5.1
2018-Jun-18 17:00N 29°11' W 095°06'3 5.4
2018-Jun-18 16:29N 29°12' W 095°03'2 5.1
2018-Jun-18 16:00N 29°14' W 095°02'3 5.6
2018-Jun-18 15:30N 29°16' W 094°59'3 5.5
2018-Jun-18 15:00N 29°17' W 094°57'3 5.8
2018-Jun-18 14:30N 29°18' W 094°53'3 6.3
2018-Jun-18 14:00N 29°20' W 094°51'3 5.3
2018-Jun-18 13:29N 29°22' W 094°48'3 4.5
2018-Jun-18 12:53N 29°23' W 094°46'33 3.0
2018-Jun-18 02:07N 29°40' W 094°14'1 6.5
2018-Jun-18 01:59N 29°41' W 094°13'3 6.1
2018-Jun-18 01:30N 29°41' W 094°09'3 6.5
2018-Jun-18 01:01N 29°43' W 094°07'3 6.5
2018-Jun-18 00:30N 29°45' W 094°04'3 6.5
2018-Jun-18 00:00N 29°47' W 094°01'3 5.4
2018-Jun-17 23:30N 29°49' W 093°58'3 5.2
2018-Jun-17 23:00N 29°51' W 093°57'3 6.3
2018-Jun-17 22:30N 29°54' W 093°54'3 5.7
2018-Jun-17 22:01N 29°56' W 093°52'0 0.1
2018-Jun-17 21:30N 29°56' W 093°52'0 0.0
2018-Jun-17 21:00N 29°56' W 093°52'2 3.8
2018-Jun-17 20:30N 29°58' W 093°51'3 5.7
2018-Jun-17 20:00N 29°59' W 093°54'2 3.2
2018-Jun-17 19:30N 29°59' W 093°56'0 0.0
2018-Jun-17 19:00N 29°59' W 093°56'0 0.0
2018-Jun-17 18:30N 29°59' W 093°56'0 0.0
2018-Jun-17 18:00N 29°59' W 093°56'0 0.0
2018-Jun-17 17:30N 29°59' W 093°56'0 0.0
2018-Jun-17 16:59N 29°59' W 093°56'0 0.0
2018-Jun-17 16:30N 29°59' W 093°56'0 0.0
2018-Jun-17 15:59N 29°59' W 093°56'0 0.0
2018-Jun-17 15:30N 29°59' W 093°56'0 0.0
2018-Jun-17 15:00N 29°59' W 093°56'0 0.0
2018-Jun-17 14:30N 29°59' W 093°56'0 0.0
2018-Jun-17 14:00N 29°59' W 093°56'0 0.0
2018-Jun-17 13:30N 29°59' W 093°56'0 0.0
2018-Jun-17 13:00N 29°59' W 093°56'0 0.0
2018-Jun-17 12:30N 29°59' W 093°56'0 0.0
2018-Jun-17 11:59N 29°59' W 093°56'0 0.0
2018-Jun-17 11:30N 29°59' W 093°56'0 0.0
2018-Jun-17 10:58N 29°59' W 093°56'0 0.1
2018-Jun-17 10:30N 29°59' W 093°56'0 0.1
2018-Jun-17 10:00N 29°59' W 093°56'0 0.0
2018-Jun-17 09:30N 29°59' W 093°56'0 0.0
2018-Jun-17 09:00N 29°59' W 093°56'0 0.0
2018-Jun-17 08:28N 29°59' W 093°56'0 0.0
2018-Jun-17 08:00N 29°59' W 093°56'0 0.0
2018-Jun-17 07:30N 29°59' W 093°56'0 0.0
2018-Jun-17 07:00N 29°59' W 093°56'0 0.0
2018-Jun-17 06:30N 29°59' W 093°56'0 0.0
2018-Jun-17 05:59N 29°59' W 093°56'0 0.0
2018-Jun-17 05:30N 29°59' W 093°56'0 0.0
2018-Jun-17 04:59N 29°59' W 093°56'0 0.0
2018-Jun-17 04:30N 29°59' W 093°56'0 0.0
2018-Jun-17 04:00N 29°59' W 093°56'0 0.0
2018-Jun-17 03:30N 29°59' W 093°56'0 0.0
2018-Jun-17 03:00N 29°59' W 093°56'0 0.0
2018-Jun-17 02:30N 29°59' W 093°56'0 0.0
2018-Jun-17 02:00N 29°59' W 093°56'0 0.0
2018-Jun-17 01:30N 29°59' W 093°56'0 0.0
2018-Jun-17 01:00N 29°59' W 093°56'0 0.0
2018-Jun-17 00:30N 29°59' W 093°56'0 0.0
2018-Jun-17 00:00N 29°59' W 093°56'0 0.0
2018-Jun-16 23:30N 29°59' W 093°56'0 0.0
2018-Jun-16 23:00N 29°59' W 093°56'0 0.0
2018-Jun-16 22:30N 29°59' W 093°56'0 0.0
2018-Jun-16 22:00N 29°59' W 093°56'0 0.0
2018-Jun-16 21:30N 29°59' W 093°56'0 0.0
2018-Jun-16 20:58N 29°59' W 093°56'0 0.0
2018-Jun-16 20:30N 29°59' W 093°56'0 0.0
2018-Jun-16 20:00N 29°59' W 093°56'2 3.8
2018-Jun-16 19:30N 29°59' W 093°54'3 5.6
2018-Jun-16 19:00N 29°57' W 093°52'1 1.4
2018-Jun-16 18:30N 29°58' W 093°52'0 0.1
2018-Jun-16 18:00N 29°58' W 093°52'0 0.6
2018-Jun-16 17:30N 29°58' W 093°51'0 0.6
2018-Jun-16 16:59N 29°58' W 093°52'0 0.0
2018-Jun-16 16:31N 29°58' W 093°52'0 0.0
2018-Jun-16 16:00N 29°58' W 093°52'0 0.0
2018-Jun-16 15:29N 29°58' W 093°52'0 0.0
2018-Jun-16 14:59N 29°58' W 093°52'0 0.0
2018-Jun-16 14:29N 29°58' W 093°52'0 0.0
2018-Jun-16 13:57N 29°58' W 093°52'0 0.0
2018-Jun-16 13:30N 29°58' W 093°52'0 0.0
2018-Jun-16 12:59N 29°58' W 093°52'0 0.0
2018-Jun-16 12:30N 29°58' W 093°52'0 0.0
2018-Jun-16 12:00N 29°58' W 093°52'0 0.0
2018-Jun-16 11:30N 29°58' W 093°52'0 0.0
2018-Jun-16 11:00N 29°58' W 093°52'0 0.0
2018-Jun-16 10:30N 29°58' W 093°52'0 0.0
2018-Jun-16 10:00N 29°58' W 093°52'0 0.0
2018-Jun-16 09:29N 29°58' W 093°52'0 0.0
2018-Jun-16 09:00N 29°58' W 093°52'0 0.0
2018-Jun-16 08:30N 29°58' W 093°52'0 0.0
2018-Jun-16 08:00N 29°58' W 093°52'0 0.0
2018-Jun-16 07:26N 29°58' W 093°52'0 0.0
2018-Jun-16 07:01N 29°58' W 093°52'0 0.0
2018-Jun-16 06:30N 29°58' W 093°52'0 0.0
2018-Jun-16 06:00N 29°58' W 093°52'0 0.0
2018-Jun-16 05:30N 29°58' W 093°52'0 0.0
2018-Jun-16 04:56N 29°58' W 093°52'0 0.0
2018-Jun-16 04:29N 29°58' W 093°52'0 0.0
2018-Jun-16 04:00N 29°58' W 093°52'0 0.0
2018-Jun-16 03:25N 29°58' W 093°52'0 0.0
2018-Jun-16 03:00N 29°58' W 093°52'0 0.0
2018-Jun-16 02:28N 29°58' W 093°52'0 0.0
2018-Jun-16 02:00N 29°58' W 093°52'0 0.0
2018-Jun-16 01:30N 29°58' W 093°52'0 0.0
2018-Jun-16 00:59N 29°58' W 093°52'0 0.0
2018-Jun-16 00:28N 29°58' W 093°52'0 0.0
2018-Jun-16 00:00N 29°58' W 093°52'0 0.0
2018-Jun-15 23:30N 29°58' W 093°52'0 0.0
2018-Jun-15 23:00N 29°58' W 093°52'0 0.0
2018-Jun-15 22:30N 29°58' W 093°52'0 0.0
2018-Jun-15 22:01N 29°58' W 093°52'0 0.0
2018-Jun-15 21:26N 29°58' W 093°52'0 0.0
2018-Jun-15 21:00N 29°58' W 093°52'0 0.0
2018-Jun-15 20:29N 29°58' W 093°52'0 0.0
2018-Jun-15 20:00N 29°58' W 093°52'0 0.0
2018-Jun-15 19:30N 29°58' W 093°52'0 0.0
2018-Jun-15 18:59N 29°58' W 093°52'0 0.0
2018-Jun-15 18:30N 29°58' W 093°52'0 0.0
2018-Jun-15 17:56N 29°58' W 093°52'0 0.0
2018-Jun-15 17:29N 29°58' W 093°52'0 0.0
2018-Jun-15 17:00N 29°58' W 093°52'0 0.0
2018-Jun-15 16:30N 29°58' W 093°52'0 0.0
2018-Jun-15 16:00N 29°58' W 093°52'0 0.0
2018-Jun-15 15:30N 29°58' W 093°52'0 0.0
2018-Jun-15 15:00N 29°58' W 093°52'0 0.0
2018-Jun-15 14:30N 29°58' W 093°52'0 0.0
2018-Jun-15 14:00N 29°58' W 093°52'0 0.0
2018-Jun-15 13:28N 29°58' W 093°52'0 0.0
2018-Jun-15 12:58N 29°58' W 093°52'0 0.0
2018-Jun-15 12:29N 29°58' W 093°52'0 0.0
2018-Jun-15 12:00N 29°58' W 093°52'0 0.0
2018-Jun-15 11:30N 29°58' W 093°52'0 0.0
2018-Jun-15 11:00N 29°58' W 093°52'0 0.0
2018-Jun-15 10:30N 29°58' W 093°52'0 0.0
2018-Jun-15 10:00N 29°58' W 093°52'0 0.0
2018-Jun-15 09:30N 29°58' W 093°52'0 0.0
2018-Jun-15 09:00N 29°58' W 093°52'0 0.0
2018-Jun-15 08:29N 29°58' W 093°52'0 0.0
2018-Jun-15 08:00N 29°58' W 093°52'0 0.0
2018-Jun-15 07:30N 29°58' W 093°52'0 0.0
2018-Jun-15 07:00N 29°58' W 093°52'0 0.0
2018-Jun-15 06:30N 29°58' W 093°52'0 0.0
2018-Jun-15 06:00N 29°58' W 093°52'0 0.0
2018-Jun-15 05:30N 29°58' W 093°52'0 0.0
2018-Jun-15 04:58N 29°58' W 093°52'0 0.0
2018-Jun-15 04:30N 29°58' W 093°52'0 0.0
2018-Jun-15 04:00N 29°58' W 093°52'0 0.0
2018-Jun-15 03:24N 29°58' W 093°52'0 0.0
2018-Jun-15 02:59N 29°58' W 093°52'0 0.0
2018-Jun-15 02:30N 29°58' W 093°52'0 0.0
2018-Jun-15 02:01N 29°58' W 093°52'0 0.0
2018-Jun-15 01:30N 29°58' W 093°52'0 0.0
2018-Jun-15 01:00N 29°58' W 093°52'0 0.0
2018-Jun-15 00:30N 29°58' W 093°52'0 0.0
2018-Jun-14 23:59N 29°58' W 093°52'0 0.0
2018-Jun-14 23:30N 29°58' W 093°52'0 0.0
2018-Jun-14 23:00N 29°58' W 093°52'0 0.0
2018-Jun-14 22:30N 29°58' W 093°52'0 0.0
2018-Jun-14 22:00N 29°58' W 093°52'0 0.0
2018-Jun-14 21:30N 29°58' W 093°52'0 0.0
2018-Jun-14 21:00N 29°58' W 093°52'0 0.0
2018-Jun-14 20:29N 29°58' W 093°52'0 0.0
2018-Jun-14 19:58N 29°58' W 093°52'0 0.0
2018-Jun-14 19:29N 29°58' W 093°52'0 0.0
2018-Jun-14 19:00N 29°58' W 093°52'0 0.0
2018-Jun-14 18:30N 29°58' W 093°52'0 0.0
2018-Jun-14 18:00N 29°58' W 093°52'0 0.0
2018-Jun-14 17:30N 29°58' W 093°52'0 0.0
2018-Jun-14 17:00N 29°58' W 093°52'0 0.0
2018-Jun-14 16:28N 29°58' W 093°52'0 0.0
2018-Jun-14 16:00N 29°58' W 093°52'0 0.0
2018-Jun-14 15:30N 29°58' W 093°52'0 0.0
2018-Jun-14 15:00N 29°58' W 093°52'0 0.0
2018-Jun-14 14:28N 29°58' W 093°52'0 0.0
2018-Jun-14 13:58N 29°58' W 093°52'0 0.0
2018-Jun-14 13:30N 29°58' W 093°52'0 0.0
2018-Jun-14 12:58N 29°58' W 093°52'0 0.0
2018-Jun-14 12:28N 29°58' W 093°52'0 0.0
2018-Jun-14 12:00N 29°58' W 093°52'0 0.0
2018-Jun-14 11:30N 29°58' W 093°52'0 0.0
2018-Jun-14 11:00N 29°58' W 093°52'0 0.0
2018-Jun-14 10:29N 29°58' W 093°52'0 0.0
2018-Jun-14 09:57N 29°58' W 093°52'0 0.0
2018-Jun-14 09:29N 29°58' W 093°52'0 0.0
2018-Jun-14 08:58N 29°58' W 093°52'0 0.0
2018-Jun-14 08:30N 29°58' W 093°52'0 0.0
2018-Jun-14 08:00N 29°58' W 093°52'0 0.0
2018-Jun-14 07:30N 29°58' W 093°52'0 0.0
2018-Jun-14 07:00N 29°58' W 093°52'0 0.0
2018-Jun-14 06:28N 29°58' W 093°52'0 0.0
2018-Jun-14 05:59N 29°58' W 093°52'0 0.0
2018-Jun-14 05:29N 29°58' W 093°52'0 0.0
2018-Jun-14 05:00N 29°58' W 093°52'0 0.0
2018-Jun-14 04:24N 29°58' W 093°52'0 0.0
2018-Jun-14 04:00N 29°58' W 093°52'0 0.0
2018-Jun-14 03:29N 29°58' W 093°52'0 0.0
2018-Jun-14 03:00N 29°58' W 093°52'0 0.0
2018-Jun-14 02:29N 29°58' W 093°52'0 0.0
2018-Jun-14 02:00N 29°58' W 093°52'0 0.0
2018-Jun-14 01:30N 29°58' W 093°52'0 0.0
2018-Jun-14 01:00N 29°58' W 093°52'0 0.0
2018-Jun-14 00:26N 29°58' W 093°52'0 0.0
2018-Jun-13 23:57N 29°58' W 093°52'0 0.0
2018-Jun-13 23:30N 29°58' W 093°52'0 0.0
2018-Jun-13 23:00N 29°58' W 093°52'0 0.0
2018-Jun-13 22:30N 29°58' W 093°52'0 0.0
2018-Jun-13 21:53N 29°58' W 093°52'0 0.0
2018-Jun-13 21:30N 29°58' W 093°52'0 0.1
2018-Jun-13 21:00N 29°58' W 093°52'0 0.0
2018-Jun-13 20:30N 29°58' W 093°52'0 0.1
2018-Jun-13 20:00N 29°58' W 093°52'0 0.0
2018-Jun-13 19:30N 29°58' W 093°52'0 0.0
2018-Jun-13 19:00N 29°58' W 093°52'0 0.0
2018-Jun-13 18:30N 29°58' W 093°52'0 0.0
2018-Jun-13 18:00N 29°58' W 093°52'0 0.0
2018-Jun-13 17:29N 29°58' W 093°52'0 0.0
2018-Jun-13 17:00N 29°58' W 093°52'0 0.0
2018-Jun-13 16:30N 29°58' W 093°52'0 0.1
2018-Jun-13 16:00N 29°58' W 093°52'0 0.8
2018-Jun-13 15:30N 29°58' W 093°52'0 0.8
2018-Jun-13 15:00N 29°57' W 093°52'3 6.7
2018-Jun-13 14:30N 29°54' W 093°54'4 7.8
2018-Jun-13 14:00N 29°51' W 093°57'3 6.1
2018-Jun-13 13:30N 29°49' W 093°59'3 5.4
2018-Jun-13 13:00N 29°47' W 094°01'3 5.8
2018-Jun-13 12:30N 29°45' W 094°04'3 5.7
2018-Jun-13 12:00N 29°44' W 094°06'3 5.6
2018-Jun-13 11:30N 29°42' W 094°09'2 3.6
2018-Jun-13 11:00N 29°41' W 094°11'3 5.5
2018-Jun-13 10:30N 29°40' W 094°14'3 5.7
2018-Jun-13 10:00N 29°39' W 094°17'3 5.8
2018-Jun-13 09:30N 29°37' W 094°20'3 5.8
2018-Jun-13 09:00N 29°36' W 094°22'3 3.7
2018-Jun-13 08:15N 29°34' W 094°25'20 6.0
2018-Jun-13 04:54N 29°24' W 094°45'3 5.8
2018-Jun-13 04:24N 29°22' W 094°47'2 4.8
2018-Jun-13 04:00N 29°21' W 094°49'2 4.7
2018-Jun-13 03:30N 29°20' W 094°51'4 7.3
2018-Jun-13 03:00N 29°17' W 094°54'4 7.3
2018-Jun-13 02:30N 29°17' W 094°58'3 6.6
2018-Jun-13 02:00N 29°14' W 095°01'3 6.0
2018-Jun-13 01:30N 29°12' W 095°03'3 6.1
2018-Jun-13 01:00N 29°11' W 095°06'2 4.6
2018-Jun-13 00:30N 29°09' W 095°08'3 6.1
2018-Jun-13 00:00N 29°07' W 095°11'3 5.7
2018-Jun-12 23:30N 29°05' W 095°12'3 5.6
2018-Jun-12 23:00N 29°02' W 095°14'3 5.5
2018-Jun-12 22:30N 28°60' W 095°15'3 5.4
2018-Jun-12 21:59N 28°58' W 095°17'  
Track history (hours):
 
Tides and Currents Weather Stations Pressure Air Temp Water Temp Dewpoint Dewpoint Depression Visibility Wind Speed Wind Dir Waves Ship Positions

Aidan Devall

Last reported at 2018-Jun-18 20:05 UTC. Time now 2018-Jun-23 11:41 UTC.
Position N 28°57' W 095°18'.

Length 21 m.

Type: Towing. MMSI: 367685720.

Date/timePositionNaut miles runAvg speedWind from/ knotsBaromVisibWave heightAir tempDewpointWater temp
2018-Jun-18 20:05N 28°57' W 095°18'1 6.1
2018-Jun-18 19:58N 28°58' W 095°17'3 5.6
2018-Jun-18 19:30N 28°60' W 095°15'3 6.0
2018-Jun-18 19:00N 29°02' W 095°14'3 5.8
2018-Jun-18 18:30N 29°05' W 095°12'3 5.4
2018-Jun-18 18:00N 29°07' W 095°11'3 5.8
2018-Jun-18 17:30N 29°09' W 095°09'3 5.1
2018-Jun-18 17:00N 29°11' W 095°06'3 5.4
2018-Jun-18 16:29N 29°12' W 095°03'2 5.1
2018-Jun-18 16:00N 29°14' W 095°02'3 5.6
2018-Jun-18 15:30N 29°16' W 094°59'3 5.5
2018-Jun-18 15:00N 29°17' W 094°57'3 5.8
2018-Jun-18 14:30N 29°18' W 094°53'3 6.3
2018-Jun-18 14:00N 29°20' W 094°51'3 5.3
2018-Jun-18 13:29N 29°22' W 094°48'3 4.5
2018-Jun-18 12:53N 29°23' W 094°46'33 3.0
2018-Jun-18 02:07N 29°40' W 094°14'1 6.5
2018-Jun-18 01:59N 29°41' W 094°13'3 6.1
2018-Jun-18 01:30N 29°41' W 094°09'3 6.5
2018-Jun-18 01:01N 29°43' W 094°07'3 6.5
2018-Jun-18 00:30N 29°45' W 094°04'3 6.5
2018-Jun-18 00:00N 29°47' W 094°01'3 5.4
2018-Jun-17 23:30N 29°49' W 093°58'3 5.2
2018-Jun-17 23:00N 29°51' W 093°57'3 6.3
2018-Jun-17 22:30N 29°54' W 093°54'3 5.7
2018-Jun-17 22:01N 29°56' W 093°52'0 0.1
2018-Jun-17 21:30N 29°56' W 093°52'0 0.0
2018-Jun-17 21:00N 29°56' W 093°52'2 3.8
2018-Jun-17 20:30N 29°58' W 093°51'3 5.7
2018-Jun-17 20:00N 29°59' W 093°54'2 3.2
2018-Jun-17 19:30N 29°59' W 093°56'0 0.0
2018-Jun-17 19:00N 29°59' W 093°56'0 0.0
2018-Jun-17 18:30N 29°59' W 093°56'0 0.0
2018-Jun-17 18:00N 29°59' W 093°56'0 0.0
2018-Jun-17 17:30N 29°59' W 093°56'0 0.0
2018-Jun-17 16:59N 29°59' W 093°56'0 0.0
2018-Jun-17 16:30N 29°59' W 093°56'0 0.0
2018-Jun-17 15:59N 29°59' W 093°56'0 0.0
2018-Jun-17 15:30N 29°59' W 093°56'0 0.0
2018-Jun-17 15:00N 29°59' W 093°56'0 0.0
2018-Jun-17 14:30N 29°59' W 093°56'0 0.0
2018-Jun-17 14:00N 29°59' W 093°56'0 0.0
2018-Jun-17 13:30N 29°59' W 093°56'0 0.0
2018-Jun-17 13:00N 29°59' W 093°56'0 0.0
2018-Jun-17 12:30N 29°59' W 093°56'0 0.0
2018-Jun-17 11:59N 29°59' W 093°56'0 0.0
2018-Jun-17 11:30N 29°59' W 093°56'0 0.0
2018-Jun-17 10:58N 29°59' W 093°56'0 0.1
2018-Jun-17 10:30N 29°59' W 093°56'0 0.1
2018-Jun-17 10:00N 29°59' W 093°56'0 0.0
2018-Jun-17 09:30N 29°59' W 093°56'0 0.0
2018-Jun-17 09:00N 29°59' W 093°56'0 0.0
2018-Jun-17 08:28N 29°59' W 093°56'0 0.0
2018-Jun-17 08:00N 29°59' W 093°56'0 0.0
2018-Jun-17 07:30N 29°59' W 093°56'0 0.0
2018-Jun-17 07:00N 29°59' W 093°56'0 0.0
2018-Jun-17 06:30N 29°59' W 093°56'0 0.0
2018-Jun-17 05:59N 29°59' W 093°56'0 0.0
2018-Jun-17 05:30N 29°59' W 093°56'0 0.0
2018-Jun-17 04:59N 29°59' W 093°56'0 0.0
2018-Jun-17 04:30N 29°59' W 093°56'0 0.0
2018-Jun-17 04:00N 29°59' W 093°56'0 0.0
2018-Jun-17 03:30N 29°59' W 093°56'0 0.0
2018-Jun-17 03:00N 29°59' W 093°56'0 0.0
2018-Jun-17 02:30N 29°59' W 093°56'0 0.0
2018-Jun-17 02:00N 29°59' W 093°56'0 0.0
2018-Jun-17 01:30N 29°59' W 093°56'0 0.0
2018-Jun-17 01:00N 29°59' W 093°56'0 0.0
2018-Jun-17 00:30N 29°59' W 093°56'0 0.0
2018-Jun-17 00:00N 29°59' W 093°56'0 0.0
2018-Jun-16 23:30N 29°59' W 093°56'0 0.0
2018-Jun-16 23:00N 29°59' W 093°56'0 0.0
2018-Jun-16 22:30N 29°59' W 093°56'0 0.0
2018-Jun-16 22:00N 29°59' W 093°56'0 0.0
2018-Jun-16 21:30N 29°59' W 093°56'0 0.0
2018-Jun-16 20:58N 29°59' W 093°56'0 0.0
2018-Jun-16 20:30N 29°59' W 093°56'0 0.0
2018-Jun-16 20:00N 29°59' W 093°56'2 3.8
2018-Jun-16 19:30N 29°59' W 093°54'3 5.6
2018-Jun-16 19:00N 29°57' W 093°52'1 1.4
2018-Jun-16 18:30N 29°58' W 093°52'0 0.1
2018-Jun-16 18:00N 29°58' W 093°52'0 0.6
2018-Jun-16 17:30N 29°58' W 093°51'0 0.6
2018-Jun-16 16:59N 29°58' W 093°52'0 0.0
2018-Jun-16 16:31N 29°58' W 093°52'0 0.0
2018-Jun-16 16:00N 29°58' W 093°52'0 0.0
2018-Jun-16 15:29N 29°58' W 093°52'0 0.0
2018-Jun-16 14:59N 29°58' W 093°52'0 0.0
2018-Jun-16 14:29N 29°58' W 093°52'0 0.0
2018-Jun-16 13:57N 29°58' W 093°52'0 0.0
2018-Jun-16 13:30N 29°58' W 093°52'0 0.0
2018-Jun-16 12:59N 29°58' W 093°52'0 0.0
2018-Jun-16 12:30N 29°58' W 093°52'0 0.0
2018-Jun-16 12:00N 29°58' W 093°52'0 0.0
2018-Jun-16 11:30N 29°58' W 093°52'0 0.0
2018-Jun-16 11:00N 29°58' W 093°52'0 0.0
2018-Jun-16 10:30N 29°58' W 093°52'0 0.0
2018-Jun-16 10:00N 29°58' W 093°52'0 0.0
2018-Jun-16 09:29N 29°58' W 093°52'0 0.0
2018-Jun-16 09:00N 29°58' W 093°52'0 0.0
2018-Jun-16 08:30N 29°58' W 093°52'0 0.0
2018-Jun-16 08:00N 29°58' W 093°52'0 0.0
2018-Jun-16 07:26N 29°58' W 093°52'0 0.0
2018-Jun-16 07:01N 29°58' W 093°52'0 0.0
2018-Jun-16 06:30N 29°58' W 093°52'0 0.0
2018-Jun-16 06:00N 29°58' W 093°52'0 0.0
2018-Jun-16 05:30N 29°58' W 093°52'0 0.0
2018-Jun-16 04:56N 29°58' W 093°52'0 0.0
2018-Jun-16 04:29N 29°58' W 093°52'0 0.0
2018-Jun-16 04:00N 29°58' W 093°52'0 0.0
2018-Jun-16 03:25N 29°58' W 093°52'0 0.0
2018-Jun-16 03:00N 29°58' W 093°52'0 0.0
2018-Jun-16 02:28N 29°58' W 093°52'0 0.0
2018-Jun-16 02:00N 29°58' W 093°52'0 0.0
2018-Jun-16 01:30N 29°58' W 093°52'0 0.0
2018-Jun-16 00:59N 29°58' W 093°52'0 0.0
2018-Jun-16 00:28N 29°58' W 093°52'0 0.0
2018-Jun-16 00:00N 29°58' W 093°52'0 0.0
2018-Jun-15 23:30N 29°58' W 093°52'0 0.0
2018-Jun-15 23:00N 29°58' W 093°52'0 0.0
2018-Jun-15 22:30N 29°58' W 093°52'0 0.0
2018-Jun-15 22:01N 29°58' W 093°52'0 0.0
2018-Jun-15 21:26N 29°58' W 093°52'0 0.0
2018-Jun-15 21:00N 29°58' W 093°52'0 0.0
2018-Jun-15 20:29N 29°58' W 093°52'0 0.0
2018-Jun-15 20:00N 29°58' W 093°52'0 0.0
2018-Jun-15 19:30N 29°58' W 093°52'0 0.0
2018-Jun-15 18:59N 29°58' W 093°52'0 0.0
2018-Jun-15 18:30N 29°58' W 093°52'0 0.0
2018-Jun-15 17:56N 29°58' W 093°52'0 0.0
2018-Jun-15 17:29N 29°58' W 093°52'0 0.0
2018-Jun-15 17:00N 29°58' W 093°52'0 0.0
2018-Jun-15 16:30N 29°58' W 093°52'0 0.0
2018-Jun-15 16:00N 29°58' W 093°52'0 0.0
2018-Jun-15 15:30N 29°58' W 093°52'0 0.0
2018-Jun-15 15:00N 29°58' W 093°52'0 0.0
2018-Jun-15 14:30N 29°58' W 093°52'0 0.0
2018-Jun-15 14:00N 29°58' W 093°52'0 0.0
2018-Jun-15 13:28N 29°58' W 093°52'0 0.0
2018-Jun-15 12:58N 29°58' W 093°52'0 0.0
2018-Jun-15 12:29N 29°58' W 093°52'0 0.0
2018-Jun-15 12:00N 29°58' W 093°52'0 0.0
2018-Jun-15 11:30N 29°58' W 093°52'0 0.0
2018-Jun-15 11:00N 29°58' W 093°52'0 0.0
2018-Jun-15 10:30N 29°58' W 093°52'0 0.0
2018-Jun-15 10:00N 29°58' W 093°52'0 0.0
2018-Jun-15 09:30N 29°58' W 093°52'0 0.0
2018-Jun-15 09:00N 29°58' W 093°52'0 0.0
2018-Jun-15 08:29N 29°58' W 093°52'0 0.0
2018-Jun-15 08:00N 29°58' W 093°52'0 0.0
2018-Jun-15 07:30N 29°58' W 093°52'0 0.0
2018-Jun-15 07:00N 29°58' W 093°52'0 0.0
2018-Jun-15 06:30N 29°58' W 093°52'0 0.0
2018-Jun-15 06:00N 29°58' W 093°52'0 0.0
2018-Jun-15 05:30N 29°58' W 093°52'0 0.0
2018-Jun-15 04:58N 29°58' W 093°52'0 0.0
2018-Jun-15 04:30N 29°58' W 093°52'0 0.0
2018-Jun-15 04:00N 29°58' W 093°52'0 0.0
2018-Jun-15 03:24N 29°58' W 093°52'0 0.0
2018-Jun-15 02:59N 29°58' W 093°52'0 0.0
2018-Jun-15 02:30N 29°58' W 093°52'0 0.0
2018-Jun-15 02:01N 29°58' W 093°52'0 0.0
2018-Jun-15 01:30N 29°58' W 093°52'0 0.0
2018-Jun-15 01:00N 29°58' W 093°52'0 0.0
2018-Jun-15 00:30N 29°58' W 093°52'0 0.0
2018-Jun-14 23:59N 29°58' W 093°52'0 0.0
2018-Jun-14 23:30N 29°58' W 093°52'0 0.0
2018-Jun-14 23:00N 29°58' W 093°52'0 0.0
2018-Jun-14 22:30N 29°58' W 093°52'0 0.0
2018-Jun-14 22:00N 29°58' W 093°52'0 0.0
2018-Jun-14 21:30N 29°58' W 093°52'0 0.0
2018-Jun-14 21:00N 29°58' W 093°52'0 0.0
2018-Jun-14 20:29N 29°58' W 093°52'0 0.0
2018-Jun-14 19:58N 29°58' W 093°52'0 0.0
2018-Jun-14 19:29N 29°58' W 093°52'0 0.0
2018-Jun-14 19:00N 29°58' W 093°52'0 0.0
2018-Jun-14 18:30N 29°58' W 093°52'0 0.0
2018-Jun-14 18:00N 29°58' W 093°52'0 0.0
2018-Jun-14 17:30N 29°58' W 093°52'0 0.0
2018-Jun-14 17:00N 29°58' W 093°52'0 0.0
2018-Jun-14 16:28N 29°58' W 093°52'0 0.0
2018-Jun-14 16:00N 29°58' W 093°52'0 0.0
2018-Jun-14 15:30N 29°58' W 093°52'0 0.0
2018-Jun-14 15:00N 29°58' W 093°52'0 0.0
2018-Jun-14 14:28N 29°58' W 093°52'0 0.0
2018-Jun-14 13:58N 29°58' W 093°52'0 0.0
2018-Jun-14 13:30N 29°58' W 093°52'0 0.0
2018-Jun-14 12:58N 29°58' W 093°52'0 0.0
2018-Jun-14 12:28N 29°58' W 093°52'0 0.0
2018-Jun-14 12:00N 29°58' W 093°52'0 0.0
2018-Jun-14 11:30N 29°58' W 093°52'0 0.0
2018-Jun-14 11:00N 29°58' W 093°52'0 0.0
2018-Jun-14 10:29N 29°58' W 093°52'0 0.0
2018-Jun-14 09:57N 29°58' W 093°52'0 0.0
2018-Jun-14 09:29N 29°58' W 093°52'0 0.0
2018-Jun-14 08:58N 29°58' W 093°52'0 0.0
2018-Jun-14 08:30N 29°58' W 093°52'0 0.0
2018-Jun-14 08:00N 29°58' W 093°52'0 0.0
2018-Jun-14 07:30N 29°58' W 093°52'0 0.0
2018-Jun-14 07:00N 29°58' W 093°52'0 0.0
2018-Jun-14 06:28N 29°58' W 093°52'0 0.0
2018-Jun-14 05:59N 29°58' W 093°52'0 0.0
2018-Jun-14 05:29N 29°58' W 093°52'0 0.0
2018-Jun-14 05:00N 29°58' W 093°52'0 0.0
2018-Jun-14 04:24N 29°58' W 093°52'0 0.0
2018-Jun-14 04:00N 29°58' W 093°52'0 0.0
2018-Jun-14 03:29N 29°58' W 093°52'0 0.0
2018-Jun-14 03:00N 29°58' W 093°52'0 0.0
2018-Jun-14 02:29N 29°58' W 093°52'0 0.0
2018-Jun-14 02:00N 29°58' W 093°52'0 0.0
2018-Jun-14 01:30N 29°58' W 093°52'0 0.0
2018-Jun-14 01:00N 29°58' W 093°52'0 0.0
2018-Jun-14 00:26N 29°58' W 093°52'0 0.0
2018-Jun-13 23:57N 29°58' W 093°52'0 0.0
2018-Jun-13 23:30N 29°58' W 093°52'0 0.0
2018-Jun-13 23:00N 29°58' W 093°52'0 0.0
2018-Jun-13 22:30N 29°58' W 093°52'0 0.0
2018-Jun-13 21:53N 29°58' W 093°52'0 0.0
2018-Jun-13 21:30N 29°58' W 093°52'0 0.1
2018-Jun-13 21:00N 29°58' W 093°52'0 0.0
2018-Jun-13 20:30N 29°58' W 093°52'0 0.1
2018-Jun-13 20:00N 29°58' W 093°52'0 0.0
2018-Jun-13 19:30N 29°58' W 093°52'0 0.0
2018-Jun-13 19:00N 29°58' W 093°52'0 0.0
2018-Jun-13 18:30N 29°58' W 093°52'0 0.0
2018-Jun-13 18:00N 29°58' W 093°52'0 0.0
2018-Jun-13 17:29N 29°58' W 093°52'0 0.0
2018-Jun-13 17:00N 29°58' W 093°52'0 0.0
2018-Jun-13 16:30N 29°58' W 093°52'0 0.1
2018-Jun-13 16:00N 29°58' W 093°52'0 0.8
2018-Jun-13 15:30N 29°58' W 093°52'0 0.8
2018-Jun-13 15:00N 29°57' W 093°52'3 6.7
2018-Jun-13 14:30N 29°54' W 093°54'4 7.8
2018-Jun-13 14:00N 29°51' W 093°57'3 6.1
2018-Jun-13 13:30N 29°49' W 093°59'3 5.4
2018-Jun-13 13:00N 29°47' W 094°01'3 5.8
2018-Jun-13 12:30N 29°45' W 094°04'3 5.7
2018-Jun-13 12:00N 29°44' W 094°06'3 5.6
2018-Jun-13 11:30N 29°42' W 094°09'2 3.6
2018-Jun-13 11:00N 29°41' W 094°11'3 5.5
2018-Jun-13 10:30N 29°40' W 094°14'3 5.7
2018-Jun-13 10:00N 29°39' W 094°17'3 5.8
2018-Jun-13 09:30N 29°37' W 094°20'3 5.8
2018-Jun-13 09:00N 29°36' W 094°22'3 3.7
2018-Jun-13 08:15N 29°34' W 094°25'20 6.0
2018-Jun-13 04:54N 29°24' W 094°45'3 5.8
2018-Jun-13 04:24N 29°22' W 094°47'2 4.8
2018-Jun-13 04:00N 29°21' W 094°49'2 4.7
2018-Jun-13 03:30N 29°20' W 094°51'4 7.3
2018-Jun-13 03:00N 29°17' W 094°54'4 7.3
2018-Jun-13 02:30N 29°17' W 094°58'3 6.6
2018-Jun-13 02:00N 29°14' W 095°01'3 6.0
2018-Jun-13 01:30N 29°12' W 095°03'3 6.1
2018-Jun-13 01:00N 29°11' W 095°06'2 4.6
2018-Jun-13 00:30N 29°09' W 095°08'3 6.1
2018-Jun-13 00:00N 29°07' W 095°11'3 5.7
2018-Jun-12 23:30N 29°05' W 095°12'3 5.6
2018-Jun-12 23:00N 29°02' W 095°14'3 5.5
2018-Jun-12 22:30N 28°60' W 095°15'3 5.4
2018-Jun-12 21:59N 28°58' W 095°17'  

Dump ship's entire track history